sensor_id;sensor_type;location;lat;lon;timestamp;P1;durP1;ratioP1;P2;durP2;ratioP2
71183;SDS011;58887;51.980;4.464;2022-09-01T00:00:47;2.03;;;2.03;;
71183;SDS011;58887;51.980;4.464;2022-09-01T00:03:14;2.27;;;2.27;;
71183;SDS011;58887;51.980;4.464;2022-09-01T00:05:41;2.23;;;2.23;;
71183;SDS011;58887;51.980;4.464;2022-09-01T00:08:08;2.36;;;2.36;;
71183;SDS011;58887;51.980;4.464;2022-09-01T00:10:34;2.35;;;2.35;;
71183;SDS011;58887;51.980;4.464;2022-09-01T00:12:59;2.42;;;2.42;;
71183;SDS011;58887;51.980;4.464;2022-09-01T00:15:25;2.48;;;2.48;;
71183;SDS011;58887;51.980;4.464;2022-09-01T00:17:50;2.46;;;2.46;;
71183;SDS011;58887;51.980;4.464;2022-09-01T00:20:16;2.59;;;2.59;;
71183;SDS011;58887;51.980;4.464;2022-09-01T00:22:42;2.39;;;2.39;;
71183;SDS011;58887;51.980;4.464;2022-09-01T00:25:08;2.70;;;2.70;;
71183;SDS011;58887;51.980;4.464;2022-09-01T00:27:33;2.45;;;2.45;;
71183;SDS011;58887;51.980;4.464;2022-09-01T00:29:59;2.72;;;2.72;;
71183;SDS011;58887;51.980;4.464;2022-09-01T00:32:25;2.45;;;2.45;;
71183;SDS011;58887;51.980;4.464;2022-09-01T00:34:51;2.49;;;2.49;;
71183;SDS011;58887;51.980;4.464;2022-09-01T00:37:17;2.56;;;2.56;;
71183;SDS011;58887;51.980;4.464;2022-09-01T00:39:43;2.63;;;2.63;;
71183;SDS011;58887;51.980;4.464;2022-09-01T00:42:08;2.55;;;2.55;;
71183;SDS011;58887;51.980;4.464;2022-09-01T00:44:34;2.79;;;2.79;;
71183;SDS011;58887;51.980;4.464;2022-09-01T00:47:01;2.61;;;2.61;;
71183;SDS011;58887;51.980;4.464;2022-09-01T00:52:13;2.58;;;2.58;;
71183;SDS011;58887;51.980;4.464;2022-09-01T00:54:41;2.61;;;2.61;;
71183;SDS011;58887;51.980;4.464;2022-09-01T00:57:11;2.64;;;2.64;;
71183;SDS011;58887;51.980;4.464;2022-09-01T00:59:42;2.74;;;2.74;;
71183;SDS011;58887;51.980;4.464;2022-09-01T01:02:13;2.54;;;2.54;;
71183;SDS011;58887;51.980;4.464;2022-09-01T01:04:39;2.54;;;2.54;;
71183;SDS011;58887;51.980;4.464;2022-09-01T01:07:07;2.52;;;2.52;;
71183;SDS011;58887;51.980;4.464;2022-09-01T01:09:37;2.73;;;2.73;;
71183;SDS011;58887;51.980;4.464;2022-09-01T01:12:07;2.50;;;2.50;;
71183;SDS011;58887;51.980;4.464;2022-09-01T01:14:37;2.43;;;2.43;;
71183;SDS011;58887;51.980;4.464;2022-09-01T01:17:04;2.51;;;2.51;;
71183;SDS011;58887;51.980;4.464;2022-09-01T01:25:34;2.52;;;2.52;;
71183;SDS011;58887;51.980;4.464;2022-09-01T01:28:29;2.32;;;2.32;;
71183;SDS011;58887;51.980;4.464;2022-09-01T01:31:02;2.49;;;2.49;;
71183;SDS011;58887;51.980;4.464;2022-09-01T01:33:32;2.39;;;2.39;;
71183;SDS011;58887;51.980;4.464;2022-09-01T01:36:13;2.48;;;2.48;;
71183;SDS011;58887;51.980;4.464;2022-09-01T01:38:43;2.38;;;2.38;;
71183;SDS011;58887;51.980;4.464;2022-09-01T01:41:12;2.42;;;2.42;;
71183;SDS011;58887;51.980;4.464;2022-09-01T01:43:42;2.38;;;2.38;;
71183;SDS011;58887;51.980;4.464;2022-09-01T01:46:08;2.44;;;2.44;;
71183;SDS011;58887;51.980;4.464;2022-09-01T01:48:37;2.31;;;2.31;;
71183;SDS011;58887;51.980;4.464;2022-09-01T01:51:05;2.40;;;2.40;;
71183;SDS011;58887;51.980;4.464;2022-09-01T01:53:32;2.41;;;2.41;;
71183;SDS011;58887;51.980;4.464;2022-09-01T01:55:59;2.57;;;2.57;;
71183;SDS011;58887;51.980;4.464;2022-09-01T01:58:25;2.45;;;2.45;;
71183;SDS011;58887;51.980;4.464;2022-09-01T02:00:54;2.26;;;2.26;;
71183;SDS011;58887;51.980;4.464;2022-09-01T02:03:22;2.49;;;2.49;;
71183;SDS011;58887;51.980;4.464;2022-09-01T02:05:52;2.37;;;2.37;;
71183;SDS011;58887;51.980;4.464;2022-09-01T02:08:19;2.56;;;2.56;;
71183;SDS011;58887;51.980;4.464;2022-09-01T02:10:50;2.49;;;2.49;;
71183;SDS011;58887;51.980;4.464;2022-09-01T02:13:18;2.66;;;2.66;;
71183;SDS011;58887;51.980;4.464;2022-09-01T02:15:53;2.59;;;2.59;;
71183;SDS011;58887;51.980;4.464;2022-09-01T02:18:21;2.61;;;2.61;;
71183;SDS011;58887;51.980;4.464;2022-09-01T02:20:51;2.48;;;2.48;;
71183;SDS011;58887;51.980;4.464;2022-09-01T02:23:18;2.52;;;2.52;;
71183;SDS011;58887;51.980;4.464;2022-09-01T02:25:49;2.57;;;2.57;;
71183;SDS011;58887;51.980;4.464;2022-09-01T02:28:17;2.59;;;2.59;;
71183;SDS011;58887;51.980;4.464;2022-09-01T02:30:48;2.57;;;2.57;;
71183;SDS011;58887;51.980;4.464;2022-09-01T02:33:19;2.55;;;2.55;;
71183;SDS011;58887;51.980;4.464;2022-09-01T02:35:47;2.47;;;2.47;;
71183;SDS011;58887;51.980;4.464;2022-09-01T02:38:16;2.68;;;2.68;;
71183;SDS011;58887;51.980;4.464;2022-09-01T02:40:45;2.40;;;2.40;;
71183;SDS011;58887;51.980;4.464;2022-09-01T02:43:12;2.47;;;2.47;;
71183;SDS011;58887;51.980;4.464;2022-09-01T02:45:44;2.47;;;2.47;;
71183;SDS011;58887;51.980;4.464;2022-09-01T02:48:20;2.72;;;2.72;;
71183;SDS011;58887;51.980;4.464;2022-09-01T02:50:48;2.68;;;2.68;;
71183;SDS011;58887;51.980;4.464;2022-09-01T02:53:15;2.73;;;2.73;;
71183;SDS011;58887;51.980;4.464;2022-09-01T02:55:41;2.73;;;2.73;;
71183;SDS011;58887;51.980;4.464;2022-09-01T02:58:07;2.83;;;2.83;;
71183;SDS011;58887;51.980;4.464;2022-09-01T03:00:41;2.98;;;2.98;;
71183;SDS011;58887;51.980;4.464;2022-09-01T03:03:08;2.96;;;2.96;;
71183;SDS011;58887;51.980;4.464;2022-09-01T03:05:34;2.81;;;2.81;;
71183;SDS011;58887;51.980;4.464;2022-09-01T03:08:01;2.83;;;2.83;;
71183;SDS011;58887;51.980;4.464;2022-09-01T03:10:30;2.98;;;2.98;;
71183;SDS011;58887;51.980;4.464;2022-09-01T03:13:03;2.69;;;2.69;;
71183;SDS011;58887;51.980;4.464;2022-09-01T03:15:31;2.79;;;2.79;;
71183;SDS011;58887;51.980;4.464;2022-09-01T03:18:00;2.69;;;2.69;;
71183;SDS011;58887;51.980;4.464;2022-09-01T03:20:27;2.77;;;2.77;;
71183;SDS011;58887;51.980;4.464;2022-09-01T03:22:58;2.92;;;2.92;;
71183;SDS011;58887;51.980;4.464;2022-09-01T03:25:25;2.75;;;2.75;;
71183;SDS011;58887;51.980;4.464;2022-09-01T03:27:55;2.79;;;2.79;;
71183;SDS011;58887;51.980;4.464;2022-09-01T03:30:23;2.88;;;2.88;;
71183;SDS011;58887;51.980;4.464;2022-09-01T03:32:51;2.69;;;2.69;;
71183;SDS011;58887;51.980;4.464;2022-09-01T03:35:17;3.19;;;3.19;;
71183;SDS011;58887;51.980;4.464;2022-09-01T03:37:42;2.99;;;2.99;;
71183;SDS011;58887;51.980;4.464;2022-09-01T03:40:10;3.04;;;3.04;;
71183;SDS011;58887;51.980;4.464;2022-09-01T03:42:37;3.10;;;3.10;;
71183;SDS011;58887;51.980;4.464;2022-09-01T03:45:03;3.06;;;3.06;;
71183;SDS011;58887;51.980;4.464;2022-09-01T03:47:36;3.08;;;3.08;;
71183;SDS011;58887;51.980;4.464;2022-09-01T03:50:07;3.12;;;3.12;;
71183;SDS011;58887;51.980;4.464;2022-09-01T03:52:38;3.15;;;3.15;;
71183;SDS011;58887;51.980;4.464;2022-09-01T03:55:05;3.33;;;3.33;;
71183;SDS011;58887;51.980;4.464;2022-09-01T03:57:33;3.15;;;3.15;;
71183;SDS011;58887;51.980;4.464;2022-09-01T03:59:58;3.23;;;3.23;;
71183;SDS011;58887;51.980;4.464;2022-09-01T04:02:25;3.25;;;3.25;;
71183;SDS011;58887;51.980;4.464;2022-09-01T04:04:53;2.98;;;2.98;;
71183;SDS011;58887;51.980;4.464;2022-09-01T04:07:18;3.08;;;3.08;;
71183;SDS011;58887;51.980;4.464;2022-09-01T04:09:45;3.02;;;3.02;;
71183;SDS011;58887;51.980;4.464;2022-09-01T04:12:10;3.12;;;3.12;;
71183;SDS011;58887;51.980;4.464;2022-09-01T04:14:39;3.15;;;3.15;;
71183;SDS011;58887;51.980;4.464;2022-09-01T04:17:05;3.35;;;3.35;;
71183;SDS011;58887;51.980;4.464;2022-09-01T04:19:49;3.40;;;3.40;;
71183;SDS011;58887;51.980;4.464;2022-09-01T04:22:15;3.17;;;3.17;;
71183;SDS011;58887;51.980;4.464;2022-09-01T04:24:41;3.33;;;3.33;;
71183;SDS011;58887;51.980;4.464;2022-09-01T04:27:09;3.33;;;3.33;;
71183;SDS011;58887;51.980;4.464;2022-09-01T04:29:35;3.30;;;3.30;;
71183;SDS011;58887;51.980;4.464;2022-09-01T04:32:04;3.30;;;3.30;;
71183;SDS011;58887;51.980;4.464;2022-09-01T04:34:35;3.36;;;3.36;;
71183;SDS011;58887;51.980;4.464;2022-09-01T04:37:06;3.33;;;3.33;;
71183;SDS011;58887;51.980;4.464;2022-09-01T04:39:32;3.31;;;3.31;;
71183;SDS011;58887;51.980;4.464;2022-09-01T04:42:00;3.36;;;3.36;;
71183;SDS011;58887;51.980;4.464;2022-09-01T04:44:30;3.78;;;3.78;;
71183;SDS011;58887;51.980;4.464;2022-09-01T04:46:55;3.55;;;3.55;;
71183;SDS011;58887;51.980;4.464;2022-09-01T04:49:21;3.36;;;3.36;;
71183;SDS011;58887;51.980;4.464;2022-09-01T04:51:48;3.67;;;3.67;;
71183;SDS011;58887;51.980;4.464;2022-09-01T04:54:16;3.43;;;3.43;;
71183;SDS011;58887;51.980;4.464;2022-09-01T04:56:43;3.50;;;3.50;;
71183;SDS011;58887;51.980;4.464;2022-09-01T04:59:13;3.68;;;3.68;;
71183;SDS011;58887;51.980;4.464;2022-09-01T05:01:39;3.52;;;3.52;;
71183;SDS011;58887;51.980;4.464;2022-09-01T05:04:10;3.44;;;3.44;;
71183;SDS011;58887;51.980;4.464;2022-09-01T05:06:44;3.55;;;3.55;;
71183;SDS011;58887;51.980;4.464;2022-09-01T05:09:14;3.48;;;3.48;;
71183;SDS011;58887;51.980;4.464;2022-09-01T05:11:43;3.74;;;3.74;;
71183;SDS011;58887;51.980;4.464;2022-09-01T05:14:12;3.59;;;3.59;;
71183;SDS011;58887;51.980;4.464;2022-09-01T05:16:42;3.56;;;3.56;;
71183;SDS011;58887;51.980;4.464;2022-09-01T05:19:09;3.92;;;3.92;;
71183;SDS011;58887;51.980;4.464;2022-09-01T05:21:43;3.72;;;3.72;;
71183;SDS011;58887;51.980;4.464;2022-09-01T05:24:11;3.79;;;3.79;;
71183;SDS011;58887;51.980;4.464;2022-09-01T05:26:39;3.66;;;3.66;;
71183;SDS011;58887;51.980;4.464;2022-09-01T05:29:07;3.58;;;3.58;;
71183;SDS011;58887;51.980;4.464;2022-09-01T05:31:45;3.65;;;3.65;;
71183;SDS011;58887;51.980;4.464;2022-09-01T05:34:13;3.78;;;3.78;;
71183;SDS011;58887;51.980;4.464;2022-09-01T05:36:51;3.92;;;3.92;;
71183;SDS011;58887;51.980;4.464;2022-09-01T05:39:20;3.95;;;3.95;;
71183;SDS011;58887;51.980;4.464;2022-09-01T05:41:46;4.02;;;4.02;;
71183;SDS011;58887;51.980;4.464;2022-09-01T05:44:13;4.00;;;4.00;;
71183;SDS011;58887;51.980;4.464;2022-09-01T05:46:41;3.80;;;3.80;;
71183;SDS011;58887;51.980;4.464;2022-09-01T05:49:08;3.88;;;3.88;;
71183;SDS011;58887;51.980;4.464;2022-09-01T05:51:38;3.63;;;3.63;;
71183;SDS011;58887;51.980;4.464;2022-09-01T05:54:06;3.64;;;3.64;;
71183;SDS011;58887;51.980;4.464;2022-09-01T05:56:41;4.00;;;4.00;;
71183;SDS011;58887;51.980;4.464;2022-09-01T05:59:08;3.97;;;3.97;;
71183;SDS011;58887;51.980;4.464;2022-09-01T06:01:37;4.02;;;4.02;;
71183;SDS011;58887;51.980;4.464;2022-09-01T06:04:06;4.11;;;4.11;;
71183;SDS011;58887;51.980;4.464;2022-09-01T06:06:41;4.21;;;4.21;;
71183;SDS011;58887;51.980;4.464;2022-09-01T06:09:11;4.12;;;4.12;;
71183;SDS011;58887;51.980;4.464;2022-09-01T06:11:39;3.90;;;3.90;;
71183;SDS011;58887;51.980;4.464;2022-09-01T06:14:06;3.87;;;3.87;;
71183;SDS011;58887;51.980;4.464;2022-09-01T06:16:33;3.70;;;3.70;;
71183;SDS011;58887;51.980;4.464;2022-09-01T06:19:00;3.82;;;3.82;;
71183;SDS011;58887;51.980;4.464;2022-09-01T06:21:25;3.90;;;3.90;;
71183;SDS011;58887;51.980;4.464;2022-09-01T06:23:54;3.89;;;3.89;;
71183;SDS011;58887;51.980;4.464;2022-09-01T06:26:22;3.79;;;3.79;;
71183;SDS011;58887;51.980;4.464;2022-09-01T06:28:51;3.81;;;3.81;;
71183;SDS011;58887;51.980;4.464;2022-09-01T06:31:26;4.04;;;4.04;;
71183;SDS011;58887;51.980;4.464;2022-09-01T06:33:54;3.77;;;3.77;;
71183;SDS011;58887;51.980;4.464;2022-09-01T06:36:20;3.74;;;3.74;;
71183;SDS011;58887;51.980;4.464;2022-09-01T06:38:48;3.65;;;3.65;;
71183;SDS011;58887;51.980;4.464;2022-09-01T06:41:15;3.70;;;3.70;;
71183;SDS011;58887;51.980;4.464;2022-09-01T06:43:47;3.72;;;3.72;;
71183;SDS011;58887;51.980;4.464;2022-09-01T06:46:15;3.92;;;3.92;;
71183;SDS011;58887;51.980;4.464;2022-09-01T06:48:42;3.60;;;3.60;;
71183;SDS011;58887;51.980;4.464;2022-09-01T06:51:14;3.75;;;3.75;;
71183;SDS011;58887;51.980;4.464;2022-09-01T06:53:43;3.77;;;3.77;;
71183;SDS011;58887;51.980;4.464;2022-09-01T06:56:10;3.61;;;3.61;;
71183;SDS011;58887;51.980;4.464;2022-09-01T06:58:40;3.50;;;3.50;;
71183;SDS011;58887;51.980;4.464;2022-09-01T07:01:13;3.59;;;3.59;;
71183;SDS011;58887;51.980;4.464;2022-09-01T07:03:42;3.72;;;3.72;;
71183;SDS011;58887;51.980;4.464;2022-09-01T07:06:11;3.52;;;3.52;;
71183;SDS011;58887;51.980;4.464;2022-09-01T07:08:39;3.68;;;3.68;;
71183;SDS011;58887;51.980;4.464;2022-09-01T07:11:06;3.61;;;3.61;;
71183;SDS011;58887;51.980;4.464;2022-09-01T07:13:33;3.62;;;3.62;;
71183;SDS011;58887;51.980;4.464;2022-09-01T07:16:00;3.76;;;3.76;;
71183;SDS011;58887;51.980;4.464;2022-09-01T07:18:28;3.56;;;3.56;;
71183;SDS011;58887;51.980;4.464;2022-09-01T07:20:55;3.48;;;3.48;;
71183;SDS011;58887;51.980;4.464;2022-09-01T07:23:21;3.55;;;3.55;;
71183;SDS011;58887;51.980;4.464;2022-09-01T07:25:48;3.25;;;3.25;;
71183;SDS011;58887;51.980;4.464;2022-09-01T07:28:19;3.02;;;3.02;;
71183;SDS011;58887;51.980;4.464;2022-09-01T07:30:48;2.93;;;2.93;;
71183;SDS011;58887;51.980;4.464;2022-09-01T07:33:18;3.22;;;3.22;;
71183;SDS011;58887;51.980;4.464;2022-09-01T07:35:47;3.27;;;3.27;;
71183;SDS011;58887;51.980;4.464;2022-09-01T07:38:13;3.24;;;3.24;;
71183;SDS011;58887;51.980;4.464;2022-09-01T07:40:42;3.36;;;3.36;;
71183;SDS011;58887;51.980;4.464;2022-09-01T07:43:16;3.51;;;3.51;;
71183;SDS011;58887;51.980;4.464;2022-09-01T07:45:46;3.37;;;3.37;;
71183;SDS011;58887;51.980;4.464;2022-09-01T07:48:15;3.41;;;3.41;;
71183;SDS011;58887;51.980;4.464;2022-09-01T07:50:45;3.27;;;3.27;;
71183;SDS011;58887;51.980;4.464;2022-09-01T07:53:16;3.30;;;3.30;;
71183;SDS011;58887;51.980;4.464;2022-09-01T07:55:46;3.38;;;3.38;;
71183;SDS011;58887;51.980;4.464;2022-09-01T07:58:15;3.61;;;3.61;;
71183;SDS011;58887;51.980;4.464;2022-09-01T08:00:44;3.27;;;3.27;;
71183;SDS011;58887;51.980;4.464;2022-09-01T08:03:12;3.21;;;3.21;;
71183;SDS011;58887;51.980;4.464;2022-09-01T08:05:38;3.19;;;3.19;;
71183;SDS011;58887;51.980;4.464;2022-09-01T08:08:05;3.18;;;3.18;;
71183;SDS011;58887;51.980;4.464;2022-09-01T08:10:30;3.05;;;3.05;;
71183;SDS011;58887;51.980;4.464;2022-09-01T08:12:56;3.28;;;3.28;;
71183;SDS011;58887;51.980;4.464;2022-09-01T08:15:22;3.13;;;3.13;;
71183;SDS011;58887;51.980;4.464;2022-09-01T08:17:48;3.30;;;3.30;;
71183;SDS011;58887;51.980;4.464;2022-09-01T08:20:13;3.29;;;3.29;;
71183;SDS011;58887;51.980;4.464;2022-09-01T08:22:39;3.45;;;3.45;;
71183;SDS011;58887;51.980;4.464;2022-09-01T08:25:09;3.67;;;3.67;;
71183;SDS011;58887;51.980;4.464;2022-09-01T08:27:35;3.65;;;3.65;;
71183;SDS011;58887;51.980;4.464;2022-09-01T08:30:07;3.61;;;3.61;;
71183;SDS011;58887;51.980;4.464;2022-09-01T08:32:36;3.55;;;3.55;;
71183;SDS011;58887;51.980;4.464;2022-09-01T08:35:04;3.71;;;3.71;;
71183;SDS011;58887;51.980;4.464;2022-09-01T08:37:30;3.49;;;3.49;;
71183;SDS011;58887;51.980;4.464;2022-09-01T08:39:56;3.31;;;3.31;;
71183;SDS011;58887;51.980;4.464;2022-09-01T08:42:34;3.46;;;3.46;;
71183;SDS011;58887;51.980;4.464;2022-09-01T08:45:21;3.24;;;3.24;;
71183;SDS011;58887;51.980;4.464;2022-09-01T08:47:54;3.26;;;3.26;;
71183;SDS011;58887;51.980;4.464;2022-09-01T08:50:26;3.11;;;3.11;;
71183;SDS011;58887;51.980;4.464;2022-09-01T08:52:59;3.01;;;3.01;;
71183;SDS011;58887;51.980;4.464;2022-09-01T08:55:34;3.27;;;3.27;;
71183;SDS011;58887;51.980;4.464;2022-09-01T08:58:05;3.09;;;3.09;;
71183;SDS011;58887;51.980;4.464;2022-09-01T09:00:41;2.84;;;2.84;;
71183;SDS011;58887;51.980;4.464;2022-09-01T09:06:21;2.87;;;2.87;;
71183;SDS011;58887;51.980;4.464;2022-09-01T09:09:12;2.69;;;2.69;;
71183;SDS011;58887;51.980;4.464;2022-09-01T09:17:12;3.34;;;3.34;;
71183;SDS011;58887;51.980;4.464;2022-09-01T09:19:44;3.11;;;3.11;;
71183;SDS011;58887;51.980;4.464;2022-09-01T09:22:15;2.78;;;2.78;;
71183;SDS011;58887;51.980;4.464;2022-09-01T09:27:35;2.73;;;2.73;;
71183;SDS011;58887;51.980;4.464;2022-09-01T09:30:06;3.04;;;3.04;;
71183;SDS011;58887;51.980;4.464;2022-09-01T09:35:41;2.66;;;2.66;;
71183;SDS011;58887;51.980;4.464;2022-09-01T09:43:27;2.54;;;2.54;;
71183;SDS011;58887;51.980;4.464;2022-09-01T09:49:15;2.61;;;2.61;;
71183;SDS011;58887;51.980;4.464;2022-09-01T09:51:54;2.54;;;2.54;;
71183;SDS011;58887;51.980;4.464;2022-09-01T09:54:26;2.38;;;2.38;;
71183;SDS011;58887;51.980;4.464;2022-09-01T09:57:10;2.41;;;2.41;;
71183;SDS011;58887;51.980;4.464;2022-09-01T10:02:16;2.30;;;2.30;;
71183;SDS011;58887;51.980;4.464;2022-09-01T10:04:46;2.24;;;2.24;;
71183;SDS011;58887;51.980;4.464;2022-09-01T10:07:29;2.13;;;2.13;;
71183;SDS011;58887;51.980;4.464;2022-09-01T10:09:59;2.07;;;2.07;;
71183;SDS011;58887;51.980;4.464;2022-09-01T10:12:28;2.31;;;2.31;;
71183;SDS011;58887;51.980;4.464;2022-09-01T10:15:04;2.03;;;2.03;;
71183;SDS011;58887;51.980;4.464;2022-09-01T10:17:34;2.19;;;2.19;;
71183;SDS011;58887;51.980;4.464;2022-09-01T10:20:06;1.95;;;1.95;;
71183;SDS011;58887;51.980;4.464;2022-09-01T10:22:36;1.57;;;1.57;;
71183;SDS011;58887;51.980;4.464;2022-09-01T10:25:04;1.47;;;1.47;;
71183;SDS011;58887;51.980;4.464;2022-09-01T10:27:36;1.42;;;1.42;;
71183;SDS011;58887;51.980;4.464;2022-09-01T10:30:07;1.36;;;1.36;;
71183;SDS011;58887;51.980;4.464;2022-09-01T10:32:43;1.44;;;1.44;;
71183;SDS011;58887;51.980;4.464;2022-09-01T10:35:13;1.56;;;1.56;;
71183;SDS011;58887;51.980;4.464;2022-09-01T10:37:50;1.60;;;1.60;;
71183;SDS011;58887;51.980;4.464;2022-09-01T10:42:57;1.45;;;1.45;;
71183;SDS011;58887;51.980;4.464;2022-09-01T10:45:43;1.37;;;1.37;;
71183;SDS011;58887;51.980;4.464;2022-09-01T10:48:25;1.54;;;1.54;;
71183;SDS011;58887;51.980;4.464;2022-09-01T10:53:49;1.45;;;1.45;;
71183;SDS011;58887;51.980;4.464;2022-09-01T10:56:22;1.49;;;1.49;;
71183;SDS011;58887;51.980;4.464;2022-09-01T11:04:08;1.37;;;1.37;;
71183;SDS011;58887;51.980;4.464;2022-09-01T11:09:17;1.72;;;1.72;;
71183;SDS011;58887;51.980;4.464;2022-09-01T11:14:31;1.50;;;1.50;;
71183;SDS011;58887;51.980;4.464;2022-09-01T11:22:22;1.60;;;1.60;;
71183;SDS011;58887;51.980;4.464;2022-09-01T11:24:52;1.58;;;1.58;;
71183;SDS011;58887;51.980;4.464;2022-09-01T11:32:42;1.44;;;1.44;;
71183;SDS011;58887;51.980;4.464;2022-09-01T11:35:20;1.40;;;1.40;;
71183;SDS011;58887;51.980;4.464;2022-09-01T11:37:54;1.72;;;1.72;;
71183;SDS011;58887;51.980;4.464;2022-09-01T11:40:26;1.71;;;1.71;;
71183;SDS011;58887;51.980;4.464;2022-09-01T11:42:53;1.55;;;1.55;;
71183;SDS011;58887;51.980;4.464;2022-09-01T11:45:27;1.47;;;1.47;;
71183;SDS011;58887;51.980;4.464;2022-09-01T11:48:01;1.39;;;1.39;;
71183;SDS011;58887;51.980;4.464;2022-09-01T11:50:37;1.46;;;1.46;;
71183;SDS011;58887;51.980;4.464;2022-09-01T11:53:06;1.37;;;1.37;;
71183;SDS011;58887;51.980;4.464;2022-09-01T11:58:05;1.35;;;1.35;;
71183;SDS011;58887;51.980;4.464;2022-09-01T12:00:38;1.58;;;1.58;;
71183;SDS011;58887;51.980;4.464;2022-09-01T12:03:19;1.70;;;1.70;;
71183;SDS011;58887;51.980;4.464;2022-09-01T12:05:47;1.66;;;1.66;;
71183;SDS011;58887;51.980;4.464;2022-09-01T12:08:23;1.58;;;1.58;;
71183;SDS011;58887;51.980;4.464;2022-09-01T12:11:01;1.51;;;1.51;;
71183;SDS011;58887;51.980;4.464;2022-09-01T12:13:30;1.47;;;1.47;;
71183;SDS011;58887;51.980;4.464;2022-09-01T12:15:57;1.46;;;1.46;;
71183;SDS011;58887;51.980;4.464;2022-09-01T12:18:27;1.50;;;1.50;;
71183;SDS011;58887;51.980;4.464;2022-09-01T12:20:59;1.53;;;1.53;;
71183;SDS011;58887;51.980;4.464;2022-09-01T12:23:30;1.48;;;1.48;;
71183;SDS011;58887;51.980;4.464;2022-09-01T12:26:00;1.53;;;1.53;;
71183;SDS011;58887;51.980;4.464;2022-09-01T12:28:31;1.31;;;1.31;;
71183;SDS011;58887;51.980;4.464;2022-09-01T12:31:00;1.57;;;1.57;;
71183;SDS011;58887;51.980;4.464;2022-09-01T12:33:29;1.23;;;1.23;;
71183;SDS011;58887;51.980;4.464;2022-09-01T12:38:55;1.29;;;1.29;;
71183;SDS011;58887;51.980;4.464;2022-09-01T12:41:42;1.25;;;1.25;;
71183;SDS011;58887;51.980;4.464;2022-09-01T12:47:03;1.33;;;1.33;;
71183;SDS011;58887;51.980;4.464;2022-09-01T12:54:43;1.23;;;1.23;;
71183;SDS011;58887;51.980;4.464;2022-09-01T12:57:11;1.10;;;1.10;;
71183;SDS011;58887;51.980;4.464;2022-09-01T13:00:04;1.06;;;1.06;;
71183;SDS011;58887;51.980;4.464;2022-09-01T13:02:37;1.22;;;1.22;;
71183;SDS011;58887;51.980;4.464;2022-09-01T13:05:21;1.17;;;1.17;;
71183;SDS011;58887;51.980;4.464;2022-09-01T13:07:48;1.09;;;1.09;;
71183;SDS011;58887;51.980;4.464;2022-09-01T13:10:13;1.01;;;1.01;;
71183;SDS011;58887;51.980;4.464;2022-09-01T13:12:39;1.15;;;1.15;;
71183;SDS011;58887;51.980;4.464;2022-09-01T13:15:06;1.04;;;1.04;;
71183;SDS011;58887;51.980;4.464;2022-09-01T13:17:33;1.22;;;1.22;;
71183;SDS011;58887;51.980;4.464;2022-09-01T13:19:58;1.13;;;1.13;;
71183;SDS011;58887;51.980;4.464;2022-09-01T13:22:24;1.09;;;1.09;;
71183;SDS011;58887;51.980;4.464;2022-09-01T13:24:49;1.15;;;1.15;;
71183;SDS011;58887;51.980;4.464;2022-09-01T13:27:15;1.09;;;1.09;;
71183;SDS011;58887;51.980;4.464;2022-09-01T13:29:41;1.13;;;1.13;;
71183;SDS011;58887;51.980;4.464;2022-09-01T13:32:06;1.12;;;1.12;;
71183;SDS011;58887;51.980;4.464;2022-09-01T13:34:33;1.19;;;1.19;;
71183;SDS011;58887;51.980;4.464;2022-09-01T13:36:59;1.15;;;1.15;;
71183;SDS011;58887;51.980;4.464;2022-09-01T13:39:25;1.13;;;1.13;;
71183;SDS011;58887;51.980;4.464;2022-09-01T13:41:50;1.11;;;1.11;;
71183;SDS011;58887;51.980;4.464;2022-09-01T13:44:17;1.06;;;1.06;;
71183;SDS011;58887;51.980;4.464;2022-09-01T13:46:43;1.12;;;1.12;;
71183;SDS011;58887;51.980;4.464;2022-09-01T13:49:09;1.00;;;1.00;;
71183;SDS011;58887;51.980;4.464;2022-09-01T13:51:34;1.07;;;1.07;;
71183;SDS011;58887;51.980;4.464;2022-09-01T13:54:02;1.11;;;1.11;;
71183;SDS011;58887;51.980;4.464;2022-09-01T13:56:29;1.04;;;1.04;;
71183;SDS011;58887;51.980;4.464;2022-09-01T13:58:54;1.01;;;1.01;;
71183;SDS011;58887;51.980;4.464;2022-09-01T14:01:20;1.26;;;1.26;;
71183;SDS011;58887;51.980;4.464;2022-09-01T14:03:48;1.13;;;1.13;;
71183;SDS011;58887;51.980;4.464;2022-09-01T14:06:14;1.12;;;1.12;;
71183;SDS011;58887;51.980;4.464;2022-09-01T14:08:39;1.11;;;1.11;;
71183;SDS011;58887;51.980;4.464;2022-09-01T14:11:05;0.98;;;0.98;;
71183;SDS011;58887;51.980;4.464;2022-09-01T14:13:31;1.01;;;1.01;;
71183;SDS011;58887;51.980;4.464;2022-09-01T14:15:58;1.07;;;1.07;;
71183;SDS011;58887;51.980;4.464;2022-09-01T14:18:24;0.96;;;0.96;;
71183;SDS011;58887;51.980;4.464;2022-09-01T14:20:57;0.90;;;0.90;;
71183;SDS011;58887;51.980;4.464;2022-09-01T14:23:24;1.13;;;1.13;;
71183;SDS011;58887;51.980;4.464;2022-09-01T14:25:49;1.21;;;1.21;;
71183;SDS011;58887;51.980;4.464;2022-09-01T14:28:16;0.96;;;0.95;;
71183;SDS011;58887;51.980;4.464;2022-09-01T14:30:43;1.03;;;1.03;;
71183;SDS011;58887;51.980;4.464;2022-09-01T14:33:10;0.97;;;0.97;;
71183;SDS011;58887;51.980;4.464;2022-09-01T14:35:41;1.03;;;1.03;;
71183;SDS011;58887;51.980;4.464;2022-09-01T14:38:09;0.86;;;0.86;;
71183;SDS011;58887;51.980;4.464;2022-09-01T14:40:36;0.97;;;0.97;;
71183;SDS011;58887;51.980;4.464;2022-09-01T14:43:03;0.97;;;0.97;;
71183;SDS011;58887;51.980;4.464;2022-09-01T14:45:30;0.92;;;0.92;;
71183;SDS011;58887;51.980;4.464;2022-09-01T14:47:56;0.99;;;0.99;;
71183;SDS011;58887;51.980;4.464;2022-09-01T14:50:25;1.05;;;1.05;;
71183;SDS011;58887;51.980;4.464;2022-09-01T14:52:53;0.96;;;0.96;;
71183;SDS011;58887;51.980;4.464;2022-09-01T14:55:21;0.81;;;0.81;;
71183;SDS011;58887;51.980;4.464;2022-09-01T14:57:48;1.01;;;1.01;;
71183;SDS011;58887;51.980;4.464;2022-09-01T15:00:15;0.87;;;0.87;;
71183;SDS011;58887;51.980;4.464;2022-09-01T15:02:41;0.90;;;0.90;;
71183;SDS011;58887;51.980;4.464;2022-09-01T15:05:08;0.92;;;0.92;;
71183;SDS011;58887;51.980;4.464;2022-09-01T15:07:35;0.87;;;0.87;;
71183;SDS011;58887;51.980;4.464;2022-09-01T15:10:02;0.86;;;0.86;;
71183;SDS011;58887;51.980;4.464;2022-09-01T15:12:28;0.87;;;0.87;;
71183;SDS011;58887;51.980;4.464;2022-09-01T15:14:56;0.95;;;0.95;;
71183;SDS011;58887;51.980;4.464;2022-09-01T15:17:23;0.98;;;0.98;;
71183;SDS011;58887;51.980;4.464;2022-09-01T15:19:49;1.20;;;1.20;;
71183;SDS011;58887;51.980;4.464;2022-09-01T15:22:15;1.08;;;1.07;;
71183;SDS011;58887;51.980;4.464;2022-09-01T15:24:41;0.89;;;0.89;;
71183;SDS011;58887;51.980;4.464;2022-09-01T15:27:07;0.86;;;0.86;;
71183;SDS011;58887;51.980;4.464;2022-09-01T15:29:32;0.93;;;0.93;;
71183;SDS011;58887;51.980;4.464;2022-09-01T15:31:59;0.96;;;0.96;;
71183;SDS011;58887;51.980;4.464;2022-09-01T15:34:26;0.91;;;0.91;;
71183;SDS011;58887;51.980;4.464;2022-09-01T15:36:52;0.98;;;0.98;;
71183;SDS011;58887;51.980;4.464;2022-09-01T15:39:18;0.85;;;0.85;;
71183;SDS011;58887;51.980;4.464;2022-09-01T15:41:43;0.92;;;0.92;;
71183;SDS011;58887;51.980;4.464;2022-09-01T15:44:09;0.92;;;0.92;;
71183;SDS011;58887;51.980;4.464;2022-09-01T15:46:35;1.00;;;1.00;;
71183;SDS011;58887;51.980;4.464;2022-09-01T15:49:07;1.00;;;1.00;;
71183;SDS011;58887;51.980;4.464;2022-09-01T15:51:38;0.89;;;0.89;;
71183;SDS011;58887;51.980;4.464;2022-09-01T15:54:07;1.09;;;1.09;;
71183;SDS011;58887;51.980;4.464;2022-09-01T15:56:34;0.93;;;0.93;;
71183;SDS011;58887;51.980;4.464;2022-09-01T15:59:00;1.13;;;1.13;;
71183;SDS011;58887;51.980;4.464;2022-09-01T16:01:26;1.12;;;1.12;;
71183;SDS011;58887;51.980;4.464;2022-09-01T16:03:54;1.03;;;1.03;;
71183;SDS011;58887;51.980;4.464;2022-09-01T16:06:20;1.21;;;1.21;;
71183;SDS011;58887;51.980;4.464;2022-09-01T16:08:47;1.00;;;1.00;;
71183;SDS011;58887;51.980;4.464;2022-09-01T16:11:13;1.06;;;1.06;;
71183;SDS011;58887;51.980;4.464;2022-09-01T16:13:39;1.14;;;1.14;;